createdAt,value
2019-02-15T00:00:15.654Z,25.4
2019-02-15T00:01:05.700Z,25.6
2019-02-15T00:01:56.268Z,25.6
2019-02-15T00:02:45.020Z,25.7
2019-02-15T00:03:36.703Z,25.8
2019-02-15T00:04:26.497Z,25.9
2019-02-15T00:05:16.015Z,25.9
2019-02-15T00:06:06.615Z,26
2019-02-15T00:06:56.103Z,26.1
2019-02-15T00:07:47.012Z,26.1
2019-02-15T00:08:36.455Z,26.3
2019-02-15T00:09:25.293Z,26.3
2019-02-15T00:10:16.357Z,26.4
2019-02-15T00:11:05.617Z,26.4
2019-02-15T00:11:55.688Z,26.5
2019-02-15T00:12:46.300Z,26.5
2019-02-15T00:13:37.404Z,26.6
2019-02-15T00:14:27.432Z,26.6
2019-02-15T00:15:16.911Z,26.7
2019-02-15T00:16:07.044Z,26.7
2019-02-15T00:16:56.782Z,26.6
2019-02-15T00:17:47.074Z,26.6
2019-02-15T00:18:37.322Z,26.5
2019-02-15T00:19:26.769Z,26.4
2019-02-15T00:20:16.757Z,26.2
2019-02-15T00:21:07.664Z,26.1
2019-02-15T00:21:57.379Z,25.9
2019-02-15T00:22:47.151Z,25.8
2019-02-15T00:23:37.184Z,25.8
2019-02-15T00:24:27.871Z,25.6
2019-02-15T00:25:17.326Z,25.4
2019-02-15T00:26:07.658Z,25.4
2019-02-15T00:26:57.756Z,25.4
2019-02-15T00:27:46.663Z,25.4
2019-02-15T00:28:37.835Z,25.4
2019-02-15T00:29:28.489Z,25.6
2019-02-15T00:30:18.009Z,25.6
2019-02-15T00:31:07.456Z,25.7
2019-02-15T00:31:58.381Z,25.7
2019-02-15T00:32:47.611Z,25.8
2019-02-15T00:33:37.878Z,25.9
2019-02-15T00:34:28.841Z,25.9
2019-02-15T00:35:18.078Z,26.1
2019-02-15T00:36:08.425Z,26.1
2019-02-15T00:36:57.423Z,26.1
2019-02-15T00:37:48.248Z,26.1
2019-02-15T00:38:38.480Z,26.1
2019-02-15T00:39:27.868Z,26.1
2019-02-15T00:40:17.585Z,26
2019-02-15T00:41:07.898Z,25.9
2019-02-15T00:41:58.595Z,25.9
2019-02-15T00:42:48.305Z,25.9
2019-02-15T00:43:38.075Z,25.9
2019-02-15T00:44:28.975Z,25.8
2019-02-15T00:45:18.430Z,25.8
2019-02-15T00:46:07.912Z,25.7
2019-02-15T00:46:59.365Z,25.8
2019-02-15T00:47:48.845Z,25.8
2019-02-15T00:48:38.645Z,25.8
2019-02-15T00:49:29.310Z,25.9
2019-02-15T00:50:19.354Z,26
2019-02-15T00:51:08.825Z,26.1
2019-02-15T00:51:59.140Z,26.1
2019-02-15T00:52:49.234Z,26.2
2019-02-15T00:53:39.572Z,26.3
2019-02-15T00:54:29.587Z,26.3
2019-02-15T00:55:20.514Z,26.4
2019-02-15T00:56:09.789Z,26.4
2019-02-15T00:56:59.548Z,26.5
2019-02-15T00:57:49.597Z,26.6
2019-02-15T00:58:40.156Z,26.6
2019-02-15T00:59:30.862Z,26.6
2019-02-15T01:00:19.689Z,26.6
2019-02-15T01:01:10.447Z,26.6
2019-02-15T01:01:59.061Z,26.6
2019-02-15T01:02:50.435Z,26.4
2019-02-15T01:03:39.794Z,26.3
2019-02-15T01:04:29.802Z,26.1
2019-02-15T01:05:19.976Z,26
2019-02-15T01:06:09.621Z,25.8
2019-02-15T01:07:00.717Z,25.8
2019-02-15T01:07:50.864Z,25.6
2019-02-15T01:08:40.816Z,25.4
2019-02-15T01:09:29.644Z,25.4
2019-02-15T01:10:20.724Z,25.4
2019-02-15T01:11:10.278Z,25.4
2019-02-15T01:12:01.081Z,25.4
2019-02-15T01:12:50.289Z,25.4
2019-02-15T01:13:40.341Z,25.6
2019-02-15T01:14:30.956Z,25.6
2019-02-15T01:15:21.280Z,25.7
2019-02-15T01:16:10.613Z,25.8
2019-02-15T01:17:01.116Z,25.8
2019-02-15T01:17:50.990Z,25.9
2019-02-15T01:18:41.308Z,26
2019-02-15T01:19:30.800Z,26.1
2019-02-15T01:20:21.431Z,26.2
2019-02-15T01:21:11.675Z,26.3
2019-02-15T01:22:01.535Z,26.3
2019-02-15T01:22:50.806Z,26.4
2019-02-15T01:23:41.875Z,26.4
2019-02-15T01:24:30.830Z,26.5
2019-02-15T01:25:22.023Z,26.5
2019-02-15T01:26:11.245Z,26.6
2019-02-15T01:27:01.245Z,26.6
2019-02-15T01:27:51.849Z,26.7
2019-02-15T01:28:42.244Z,26.7
2019-02-15T01:29:31.990Z,26.7
2019-02-15T01:30:22.062Z,26.6
2019-02-15T01:31:12.387Z,26.6
2019-02-15T01:32:02.446Z,26.4
2019-02-15T01:32:52.510Z,26.3
2019-02-15T01:33:41.965Z,26.1
2019-02-15T01:34:32.446Z,26
2019-02-15T01:35:21.624Z,25.9
2019-02-15T01:36:12.489Z,25.8
2019-02-15T01:37:02.787Z,25.6
2019-02-15T01:37:53.120Z,25.5
2019-02-15T01:38:42.987Z,25.4
2019-02-15T01:39:32.965Z,25.4
2019-02-15T01:40:22.447Z,25.4
2019-02-15T01:41:12.761Z,25.4
2019-02-15T01:42:02.573Z,25.6
2019-02-15T01:42:52.599Z,25.6
2019-02-15T01:43:48.120Z,25.6
2019-02-15T01:44:33.354Z,25.8
2019-02-15T01:45:22.649Z,25.8
2019-02-15T01:46:13.431Z,25.9
2019-02-15T01:47:03.855Z,26
2019-02-15T01:47:52.996Z,26
2019-02-15T01:48:43.311Z,26.1
2019-02-15T01:49:32.951Z,26.2
2019-02-15T01:50:22.669Z,26.3
2019-02-15T01:51:12.996Z,26.3
2019-02-15T01:52:03.620Z,26.4
2019-02-15T01:52:53.674Z,26.4
2019-02-15T01:53:43.743Z,26.5
2019-02-15T01:54:34.293Z,26.6
2019-02-15T01:55:24.069Z,26.6
2019-02-15T01:56:13.120Z,26.7
2019-02-15T01:57:03.688Z,26.8
2019-02-15T01:57:53.695Z,26.8
2019-02-15T01:58:44.601Z,26.7
2019-02-15T01:59:33.790Z,26.7
2019-02-15T02:00:23.618Z,26.6
2019-02-15T02:01:13.625Z,26.4
2019-02-15T02:02:04.508Z,26.3
2019-02-15T02:02:53.837Z,26.1
2019-02-15T02:03:44.130Z,26
2019-02-15T02:04:34.090Z,25.9
2019-02-15T02:05:23.933Z,25.8
2019-02-15T02:06:13.798Z,25.6
2019-02-15T02:07:04.284Z,25.5
2019-02-15T02:07:54.905Z,25.4
2019-02-15T02:08:45.274Z,25.4
2019-02-15T02:09:34.770Z,25.4
2019-02-15T02:10:24.013Z,25.5
2019-02-15T02:11:14.342Z,25.6
2019-02-15T02:12:04.427Z,25.6
2019-02-15T02:12:55.538Z,25.7
2019-02-15T02:13:54.387Z,25.8
2019-02-15T02:14:34.860Z,25.8
2019-02-15T02:15:25.457Z,25.9
2019-02-15T02:16:14.475Z,26
2019-02-15T02:17:05.803Z,26.1
2019-02-15T02:17:55.920Z,26.1
2019-02-15T02:18:45.187Z,26.2
2019-02-15T02:19:35.477Z,26.3
2019-02-15T02:20:26.037Z,26.3
2019-02-15T02:21:15.581Z,26.4
2019-02-15T02:22:05.674Z,26.4
2019-02-15T02:22:56.034Z,26.4
2019-02-15T02:23:44.409Z,26.4
2019-02-15T02:24:36.049Z,26.3
2019-02-15T02:25:25.876Z,26.3
2019-02-15T02:26:15.890Z,26.2
2019-02-15T02:27:06.030Z,26.1
2019-02-15T02:27:56.274Z,26.1
2019-02-15T02:28:46.331Z,26
2019-02-15T02:29:36.419Z,26
2019-02-15T02:30:26.817Z,25.9
2019-02-15T02:31:16.112Z,25.9
2019-02-15T02:32:06.334Z,25.9
2019-02-15T02:32:56.103Z,25.9
2019-02-15T02:33:46.969Z,25.9
2019-02-15T02:34:35.492Z,25.9
2019-02-15T02:35:26.453Z,26.1
2019-02-15T02:36:16.123Z,26.1
2019-02-15T02:37:07.073Z,26.2
2019-02-15T02:37:56.828Z,26.2
2019-02-15T02:38:46.551Z,26.3
2019-02-15T02:39:36.893Z,26.4
2019-02-15T02:40:26.358Z,26.4
2019-02-15T02:41:17.359Z,26.5
2019-02-15T02:42:07.014Z,26.6
2019-02-15T02:42:57.922Z,26.6
2019-02-15T02:43:46.700Z,26.6
2019-02-15T02:44:36.909Z,26.6
2019-02-15T02:45:27.070Z,26.6
2019-02-15T02:46:17.111Z,26.4
2019-02-15T02:47:07.910Z,26.3
2019-02-15T02:47:57.189Z,26.2
2019-02-15T02:48:47.560Z,26
2019-02-15T02:49:37.509Z,25.9
2019-02-15T02:50:27.400Z,25.8
2019-02-15T02:51:17.397Z,25.8
2019-02-15T02:52:07.961Z,25.6
2019-02-15T02:52:58.608Z,25.4
2019-02-15T02:53:48.110Z,25.4
2019-02-15T02:54:38.569Z,25.4
2019-02-15T02:55:27.787Z,25.4
2019-02-15T02:56:17.745Z,25.5
2019-02-15T02:57:08.082Z,25.6
2019-02-15T02:57:58.102Z,25.6
2019-02-15T02:58:48.484Z,25.7
2019-02-15T02:59:38.791Z,25.8
2019-02-15T03:00:38.458Z,25.8
2019-02-15T03:01:18.961Z,25.9
2019-02-15T03:02:08.484Z,26
2019-02-15T03:02:58.699Z,26.1
2019-02-15T03:03:48.904Z,26.2
2019-02-15T03:04:38.910Z,26.3
2019-02-15T03:08:11.915Z,26.5
2019-02-15T03:09:00.535Z,26.6
2019-02-15T03:09:51.243Z,26.7
2019-02-15T03:10:41.842Z,26.7
2019-02-15T03:11:31.339Z,26.7
2019-02-15T03:12:21.634Z,26.6
2019-02-15T03:13:12.240Z,26.6
2019-02-15T03:14:13.778Z,26.6
2019-02-15T03:14:52.763Z,26.4
2019-02-15T03:15:42.147Z,26.3
2019-02-15T03:16:31.719Z,26.1
2019-02-15T03:17:21.539Z,25.9
2019-02-15T03:18:13.164Z,25.9
2019-02-15T03:19:02.670Z,25.7
2019-02-15T03:19:51.626Z,25.6
2019-02-15T03:20:43.118Z,25.5
2019-02-15T03:21:31.466Z,25.4
2019-02-15T03:22:22.640Z,25.4
2019-02-15T03:23:12.537Z,25.4
2019-02-15T03:24:03.549Z,25.4
2019-02-15T03:24:53.459Z,25.5
2019-02-15T03:25:43.183Z,25.6
2019-02-15T03:26:32.695Z,25.7
2019-02-15T03:27:23.085Z,25.7
2019-02-15T03:28:13.254Z,25.8
2019-02-15T03:29:02.678Z,25.9
2019-02-15T03:29:52.383Z,26
2019-02-15T03:30:44.052Z,26.1
2019-02-15T03:31:33.374Z,26.1
2019-02-15T03:32:23.970Z,26.3
2019-02-15T03:33:14.591Z,26.3
2019-02-15T03:34:03.879Z,26.4
2019-02-15T03:34:52.971Z,26.4
2019-02-15T03:35:42.726Z,26.5
2019-02-15T03:36:33.754Z,26.6
2019-02-15T03:37:23.927Z,26.6
2019-02-15T03:38:14.424Z,26.6
2019-02-15T03:39:04.087Z,26.7
2019-02-15T03:39:54.419Z,26.7
2019-02-15T03:40:44.463Z,26.7
2019-02-15T03:41:34.232Z,26.6
2019-02-15T03:42:24.354Z,26.5
2019-02-15T03:43:14.698Z,26.4
2019-02-15T03:44:04.327Z,26.2
2019-02-15T03:44:54.538Z,26.1
2019-02-15T03:45:45.169Z,25.9
2019-02-15T03:46:34.149Z,25.8
2019-02-15T03:47:24.864Z,25.8
2019-02-15T03:48:14.152Z,25.6
2019-02-15T03:49:04.856Z,25.4
2019-02-15T03:49:54.558Z,25.4
2019-02-15T03:50:45.138Z,25.4
2019-02-15T03:51:34.996Z,25.4
2019-02-15T03:52:25.026Z,25.5
2019-02-15T03:53:15.342Z,25.6
2019-02-15T03:54:04.075Z,25.6
2019-02-15T03:54:54.102Z,25.7
2019-02-15T03:55:44.789Z,25.8
2019-02-15T03:56:34.514Z,25.9
2019-02-15T03:57:24.915Z,25.9
2019-02-15T03:58:14.344Z,26
2019-02-15T03:59:04.168Z,26.1
2019-02-15T03:59:56.119Z,26.2
2019-02-15T04:00:45.855Z,26.3
2019-02-15T04:01:35.721Z,26.4
2019-02-15T04:02:24.641Z,26.4
2019-02-15T04:03:14.916Z,26.5
2019-02-15T04:04:05.493Z,26.6
2019-02-15T04:04:55.596Z,26.6
2019-02-15T04:05:45.938Z,26.7
2019-02-15T04:06:35.750Z,26.7
2019-02-15T04:07:26.211Z,26.8
2019-02-15T04:08:15.260Z,26.8
2019-02-15T04:09:06.486Z,26.8
2019-02-15T04:09:56.198Z,26.7
2019-02-15T04:10:45.930Z,26.6
2019-02-15T04:11:34.809Z,26.6
2019-02-15T04:12:26.686Z,26.4
2019-02-15T04:13:16.182Z,26.4
2019-02-15T04:14:05.800Z,26.4
2019-02-15T04:14:55.796Z,26.3
2019-02-15T04:15:46.086Z,26.3
2019-02-15T04:16:36.432Z,26.2
2019-02-15T04:17:25.431Z,26.1
2019-02-15T04:18:16.243Z,26.1
2019-02-15T04:19:05.695Z,26.1
2019-02-15T04:19:56.291Z,26.2
2019-02-15T04:20:46.414Z,26.3
2019-02-15T04:21:36.459Z,26.3
2019-02-15T04:22:26.487Z,26.4
2019-02-15T04:23:16.541Z,26.4
2019-02-15T04:24:07.746Z,26.5
2019-02-15T04:24:56.350Z,26.6
2019-02-15T04:25:46.908Z,26.6
2019-02-15T04:26:37.327Z,26.7
2019-02-15T04:27:27.482Z,26.7
2019-02-15T04:28:17.547Z,26.7
2019-02-15T04:29:07.599Z,26.7
2019-02-15T04:29:57.007Z,26.6
2019-02-15T04:30:47.415Z,26.6
2019-02-15T04:31:37.620Z,26.4
2019-02-15T04:32:28.259Z,26.3
2019-02-15T04:33:17.309Z,26.2
2019-02-15T04:34:07.561Z,26
2019-02-15T04:34:57.323Z,25.9
2019-02-15T04:35:47.267Z,25.8
2019-02-15T04:36:37.496Z,25.8
2019-02-15T04:37:27.269Z,25.6
2019-02-15T04:38:17.904Z,25.6
2019-02-15T04:39:08.296Z,25.5
2019-02-15T04:39:57.671Z,25.5
2019-02-15T04:40:47.538Z,25.5
2019-02-15T04:41:37.951Z,25.6
2019-02-15T04:42:27.864Z,25.6
2019-02-15T04:43:17.908Z,25.7
2019-02-15T04:44:08.806Z,25.8
2019-02-15T04:44:57.545Z,25.9
2019-02-15T04:45:48.110Z,25.9
2019-02-15T04:46:38.803Z,26
2019-02-15T04:47:28.312Z,26.1
2019-02-15T04:48:18.828Z,26.2
2019-02-15T04:49:08.355Z,26.3
2019-02-15T04:49:58.475Z,26.3
2019-02-15T04:50:49.084Z,26.4
2019-02-15T04:51:39.358Z,26.4
2019-02-15T04:52:29.136Z,26.5
2019-02-15T04:53:19.436Z,26.6
2019-02-15T04:54:08.925Z,26.6
2019-02-15T04:54:59.298Z,26.7
2019-02-15T04:55:49.342Z,26.7
2019-02-15T04:56:38.867Z,26.7
2019-02-15T04:57:28.353Z,26.7
2019-02-15T04:58:19.175Z,26.6
2019-02-15T04:59:08.567Z,26.6
2019-02-15T04:59:59.317Z,26.4
2019-02-15T05:00:49.719Z,26.3
2019-02-15T05:01:39.422Z,26.1
2019-02-15T05:02:29.192Z,25.9
2019-02-15T05:03:23.048Z,25.8
2019-02-15T05:04:10.150Z,25.6
2019-02-15T05:04:59.687Z,25.6
2019-02-15T05:05:49.778Z,25.4
2019-02-15T05:06:39.914Z,25.4
2019-02-15T05:07:29.038Z,25.4
2019-02-15T05:08:19.976Z,25.4
2019-02-15T05:09:09.981Z,25.4
2019-02-15T05:10:00.031Z,25.5
2019-02-15T05:10:49.813Z,25.6
2019-02-15T05:11:40.502Z,25.6
2019-02-15T05:12:29.959Z,25.7
2019-02-15T05:13:20.582Z,25.8
2019-02-15T05:14:10.609Z,25.9
2019-02-15T05:15:00.953Z,25.9
2019-02-15T05:15:50.692Z,26
2019-02-15T05:16:40.818Z,26.1
2019-02-15T05:17:29.959Z,26.2
2019-02-15T05:18:20.648Z,26.3
2019-02-15T05:19:10.109Z,26.3
2019-02-15T05:20:01.380Z,26.4
2019-02-15T05:20:51.028Z,26.4
2019-02-15T05:21:41.087Z,26.5
2019-02-15T05:22:31.656Z,26.6
2019-02-15T05:23:20.783Z,26.6
2019-02-15T05:24:11.876Z,26.6
2019-02-15T05:25:01.318Z,26.6
2019-02-15T05:25:51.118Z,26.5
2019-02-15T05:26:40.618Z,26.4
2019-02-15T05:27:30.711Z,26.2
2019-02-15T05:28:21.564Z,26.1
2019-02-15T05:29:11.955Z,25.9
2019-02-15T05:30:01.756Z,25.8
2019-02-15T05:30:51.545Z,25.7
2019-02-15T05:31:41.507Z,25.6
2019-02-15T05:32:32.110Z,25.5
2019-02-15T05:33:20.872Z,25.4
2019-02-15T05:34:11.974Z,25.3
2019-02-15T05:35:02.116Z,25.3
2019-02-15T05:35:51.842Z,25.4
2019-02-15T05:36:42.426Z,25.4
2019-02-15T05:37:32.008Z,25.4
2019-02-15T05:38:22.332Z,25.4
2019-02-15T05:39:12.552Z,25.5
2019-02-15T05:40:02.279Z,25.6
2019-02-15T05:40:52.472Z,25.6
2019-02-15T05:41:42.829Z,25.8
2019-02-15T05:42:32.855Z,25.9
2019-02-15T05:43:22.567Z,26
2019-02-15T05:44:12.414Z,26.1
2019-02-15T05:45:11.437Z,26.3
2019-02-15T05:45:51.711Z,26.4
2019-02-15T05:46:43.412Z,26.4
2019-02-15T05:47:32.878Z,26.5
2019-02-15T05:48:22.416Z,26.6
2019-02-15T05:49:12.465Z,26.6
2019-02-15T05:50:03.101Z,26.7
2019-02-15T05:50:52.803Z,26.7
2019-02-15T05:51:42.863Z,26.8
2019-02-15T05:52:32.939Z,26.8
2019-02-15T05:53:23.793Z,26.8
2019-02-15T05:54:13.013Z,26.8
2019-02-15T05:55:02.590Z,26.9
2019-02-15T05:55:52.946Z,26.9
2019-02-15T05:56:43.259Z,26.9
2019-02-15T05:57:33.287Z,27
2019-02-15T05:58:22.783Z,27.1
2019-02-15T05:59:12.283Z,27.1
2019-02-15T06:00:03.687Z,27.2
2019-02-15T06:00:53.531Z,27.3
2019-02-15T06:01:42.329Z,27.3
2019-02-15T06:02:33.686Z,27.4
2019-02-15T06:03:23.673Z,27.4
2019-02-15T06:06:12.139Z,27.3
2019-02-15T06:07:01.799Z,27.3
2019-02-15T06:07:52.518Z,27.3
2019-02-15T06:08:41.127Z,27.3
2019-02-15T06:09:31.765Z,27.3
2019-02-15T06:10:22.370Z,27.2
2019-02-15T06:11:15.905Z,27.1
2019-02-15T06:12:02.149Z,27.1
2019-02-15T06:12:51.816Z,27.1
2019-02-15T06:13:41.443Z,27
2019-02-15T06:14:32.135Z,26.9
2019-02-15T06:15:22.571Z,26.9
2019-02-15T06:16:11.905Z,26.8
2019-02-15T06:17:05.048Z,26.7
2019-02-15T06:17:53.091Z,26.6
2019-02-15T06:18:42.951Z,26.6
2019-02-15T06:19:31.553Z,26.6
2019-02-15T06:20:22.734Z,26.5
2019-02-15T06:21:13.380Z,26.4
2019-02-15T06:22:03.079Z,26.4
2019-02-15T06:22:52.352Z,26.3
2019-02-15T06:23:42.667Z,26.3
2019-02-15T06:24:33.008Z,26.3
2019-02-15T06:25:22.736Z,26.2
2019-02-15T06:26:13.091Z,26.1
2019-02-15T06:27:03.470Z,26.1
2019-02-15T06:27:53.942Z,26.1
2019-02-15T06:28:43.317Z,26.1
2019-02-15T06:29:33.089Z,26
2019-02-15T06:30:23.511Z,25.9
2019-02-15T06:31:12.420Z,25.9
2019-02-15T06:32:03.759Z,25.9
2019-02-15T06:32:53.574Z,25.9
2019-02-15T06:33:43.066Z,25.8
2019-02-15T06:34:33.146Z,25.8
2019-02-15T06:35:22.899Z,25.8
2019-02-15T06:36:13.843Z,25.8
2019-02-15T06:37:03.922Z,25.7
2019-02-15T06:37:54.188Z,25.7
2019-02-15T06:38:43.397Z,25.7
2019-02-15T06:39:33.739Z,25.6
2019-02-15T06:40:23.508Z,25.6
2019-02-15T06:41:16.049Z,25.6
2019-02-15T06:42:04.263Z,25.6
2019-02-15T06:42:54.947Z,25.5
2019-02-15T06:43:44.663Z,25.4
2019-02-15T06:44:34.333Z,25.4
2019-02-15T06:45:32.698Z,25.4
2019-02-15T06:46:14.513Z,25.4
2019-02-15T06:47:04.248Z,25.3
2019-02-15T06:47:54.896Z,25.3
2019-02-15T06:48:44.719Z,25.3
2019-02-15T06:49:34.970Z,25.3
2019-02-15T06:50:24.291Z,25.3
2019-02-15T06:51:14.871Z,25.3
2019-02-15T06:52:04.946Z,25.3
2019-02-15T06:52:54.453Z,25.3
2019-02-15T06:53:45.038Z,25.2
2019-02-15T06:54:34.800Z,25.3
2019-02-15T06:55:24.816Z,25.3
2019-02-15T06:56:15.448Z,25.3
2019-02-15T06:57:05.203Z,25.5
2019-02-15T06:57:55.253Z,25.6
2019-02-15T06:58:52.802Z,25.8
2019-02-15T06:59:34.260Z,25.9
2019-02-15T07:00:24.882Z,26
2019-02-15T07:01:15.512Z,26.1
2019-02-15T07:02:05.537Z,26.2
2019-02-15T07:02:54.844Z,26.3
2019-02-15T07:03:47.492Z,26.3
2019-02-15T07:06:11.249Z,26.4
2019-02-15T07:07:52.409Z,26.5
2019-02-15T07:08:42.241Z,26.5
2019-02-15T07:09:31.902Z,26.6
2019-02-15T07:10:36.025Z,26.6
2019-02-15T07:11:12.540Z,26.6
2019-02-15T07:12:01.854Z,26.6
2019-02-15T07:12:52.431Z,26.6
2019-02-15T07:13:41.860Z,26.8
2019-02-15T07:14:32.256Z,26.8
2019-02-15T07:15:37.169Z,26.9
2019-02-15T07:16:12.251Z,27
2019-02-15T07:17:02.356Z,27.1
2019-02-15T07:17:52.907Z,27.1
2019-02-15T07:18:42.958Z,27.2
2019-02-15T07:20:01.919Z,27.3
2019-02-15T07:20:21.780Z,27.3
2019-02-15T07:21:12.883Z,27.3
2019-02-15T07:22:17.836Z,27.3
2019-02-15T07:23:07.813Z,27.3
2019-02-15T07:23:43.641Z,27.4
2019-02-15T07:24:32.200Z,27.4
2019-02-15T07:25:22.632Z,27.4
2019-02-15T07:26:28.089Z,27.4
2019-02-15T07:27:02.912Z,27.4
2019-02-15T07:27:53.225Z,27.4
2019-02-15T07:28:45.826Z,27.4
2019-02-15T07:29:33.972Z,27.5
2019-02-15T07:30:23.348Z,27.6
2019-02-15T07:31:27.725Z,27.6
2019-02-15T07:32:02.361Z,27.7
2019-02-15T07:33:07.370Z,27.8
2019-02-15T07:37:54.377Z,27.9
2019-02-15T07:38:43.341Z,27.9
2019-02-15T07:39:49.487Z,27.9
2019-02-15T07:40:23.419Z,27.9
2019-02-15T07:41:28.755Z,27.9
2019-02-15T07:42:17.647Z,28
2019-02-15T07:43:09.304Z,28
2019-02-15T07:43:44.199Z,28.1
2019-02-15T07:44:34.630Z,28.1
2019-02-15T07:45:26.143Z,28.1
2019-02-15T07:46:28.849Z,28.2
2019-02-15T07:47:04.549Z,28.3
2019-02-15T07:47:55.177Z,28.3
2019-02-15T07:48:44.009Z,28.3
2019-02-15T07:49:35.323Z,28.3
2019-02-15T07:50:25.861Z,28.3
2019-02-15T07:51:15.769Z,28.3
2019-02-15T07:52:48.562Z,28.3
2019-02-15T07:52:59.561Z,28.3
2019-02-15T07:53:49.773Z,28.3
2019-02-15T07:54:39.155Z,28.3
2019-02-15T07:55:29.221Z,28.3
2019-02-15T07:56:18.817Z,28.3
2019-02-15T07:57:09.676Z,28.4
2019-02-15T07:57:59.409Z,28.4
2019-02-15T07:58:48.936Z,28.4
2019-02-15T07:59:38.688Z,28.6
2019-02-15T08:00:29.379Z,28.6
2019-02-15T08:01:19.501Z,28.6
2019-02-15T08:02:10.231Z,28.6
2019-02-15T08:02:59.819Z,28.6
2019-02-15T08:03:50.055Z,28.6
2019-02-15T08:04:40.116Z,28.6
2019-02-15T08:05:30.441Z,28.6
2019-02-15T08:06:20.036Z,28.6
2019-02-15T08:07:09.796Z,28.7
2019-02-15T08:07:59.370Z,28.7
2019-02-15T08:08:50.348Z,28.8
2019-02-15T08:09:40.261Z,28.8
2019-02-15T08:10:29.433Z,28.8
2019-02-15T08:11:19.483Z,28.8
2019-02-15T08:12:10.127Z,28.9
2019-02-15T08:12:59.887Z,28.9
2019-02-15T08:13:49.413Z,28.9
2019-02-15T08:14:40.647Z,28.8
2019-02-15T08:15:40.145Z,28.8
2019-02-15T08:16:20.653Z,28.9
2019-02-15T08:17:09.990Z,28.8
2019-02-15T08:17:59.995Z,28.9
2019-02-15T08:18:50.915Z,28.9
2019-02-15T08:19:41.443Z,29
2019-02-15T08:20:30.092Z,29
2019-02-15T08:21:20.747Z,29.1
2019-02-15T08:22:11.047Z,29.1
2019-02-15T08:23:01.405Z,29.1
2019-02-15T08:23:51.197Z,29.1
2019-02-15T08:24:40.395Z,29.1
2019-02-15T08:25:31.317Z,29.1
2019-02-15T08:26:21.609Z,29.2
2019-02-15T08:27:11.440Z,29.2
2019-02-15T08:28:00.904Z,29.3
2019-02-15T08:28:51.635Z,29.3
2019-02-15T08:29:41.037Z,29.3
2019-02-15T08:30:31.631Z,29.3
2019-02-15T08:31:21.142Z,29.3
2019-02-15T08:32:12.744Z,29.3
2019-02-15T08:33:01.504Z,29.3
2019-02-15T08:33:52.147Z,29.3
2019-02-15T08:34:42.958Z,29.4
2019-02-15T08:35:31.612Z,29.4
2019-02-15T08:36:22.051Z,29.4
2019-02-15T08:37:14.173Z,29.4
2019-02-15T08:38:01.907Z,29.4
2019-02-15T08:38:53.125Z,29.4
2019-02-15T08:39:42.247Z,29.4
2019-02-15T08:40:33.129Z,29.5
2019-02-15T08:41:23.164Z,29.5
2019-02-15T08:42:11.947Z,29.5
2019-02-15T08:43:02.454Z,29.6
2019-02-15T08:43:52.832Z,29.6
2019-02-15T08:44:43.046Z,29.6
2019-02-15T08:45:33.041Z,29.6
2019-02-15T08:46:22.348Z,29.6
2019-02-15T08:47:12.418Z,29.6
2019-02-15T08:48:03.766Z,29.6
2019-02-15T08:48:53.868Z,29.6
2019-02-15T08:49:43.379Z,29.6
2019-02-15T08:50:32.965Z,29.6
2019-02-15T08:51:22.780Z,29.6
2019-02-15T08:52:14.110Z,29.7
2019-02-15T08:53:02.633Z,29.8
2019-02-15T08:53:55.300Z,29.8
2019-02-15T08:54:43.068Z,29.7
2019-02-15T08:55:32.122Z,29.7
2019-02-15T08:56:23.915Z,29.7
2019-02-15T08:57:13.518Z,29.7
2019-02-15T08:58:02.495Z,29.8
2019-02-15T08:58:53.343Z,29.8
2019-02-15T08:59:43.622Z,29.8
2019-02-15T09:00:33.178Z,29.8
2019-02-15T09:01:23.159Z,29.8
2019-02-15T09:02:13.197Z,29.8
2019-02-15T09:03:18.192Z,29.8
2019-02-15T09:03:53.710Z,29.8
2019-02-15T09:04:44.246Z,29.8
2019-02-15T09:05:33.519Z,29.8
2019-02-15T09:06:23.784Z,29.8
2019-02-15T09:07:14.662Z,29.9
2019-02-15T09:08:03.622Z,29.9
2019-02-15T09:08:54.009Z,29.9
2019-02-15T09:09:44.309Z,30
2019-02-15T09:10:34.034Z,30
2019-02-15T09:11:24.197Z,30
2019-02-15T09:12:15.011Z,30
2019-02-15T09:13:04.757Z,29.9
2019-02-15T09:13:53.799Z,29.9
2019-02-15T09:14:44.131Z,29.9
2019-02-15T09:15:33.872Z,30
2019-02-15T09:16:24.413Z,30
2019-02-15T09:17:13.949Z,30.1
2019-02-15T09:18:03.796Z,30.1
2019-02-15T09:18:55.089Z,30.1
2019-02-15T09:19:45.149Z,30.1
2019-02-15T09:20:34.956Z,30.1
2019-02-15T09:21:25.046Z,30.1
2019-02-15T09:22:15.318Z,30.1
2019-02-15T09:23:05.393Z,30.1
2019-02-15T09:23:56.474Z,30.1
2019-02-15T09:24:45.504Z,30.2
2019-02-15T09:25:36.173Z,30.3
2019-02-15T09:26:25.378Z,30.3
2019-02-15T09:27:15.459Z,30.3
2019-02-15T09:28:04.959Z,30.2
2019-02-15T09:28:55.588Z,30.2
2019-02-15T09:29:45.606Z,30.3
2019-02-15T09:30:35.393Z,30.3
2019-02-15T09:31:25.788Z,30.3
2019-02-15T09:32:15.530Z,30.3
2019-02-15T09:33:05.847Z,30.3
2019-02-15T09:33:55.791Z,30.4
2019-02-15T09:34:46.046Z,30.3
2019-02-15T09:35:36.000Z,30.3
2019-02-15T09:36:26.583Z,30.3
2019-02-15T09:37:16.101Z,30.3
2019-02-15T09:38:07.072Z,30.3
2019-02-15T09:38:57.001Z,30.4
2019-02-15T09:39:46.563Z,30.4
2019-02-15T09:40:36.218Z,30.4
2019-02-15T09:41:26.910Z,30.4
2019-02-15T09:42:17.215Z,30.5
2019-02-15T09:43:06.784Z,30.5
2019-02-15T09:43:56.540Z,30.5
2019-02-15T09:44:47.394Z,30.5
2019-02-15T09:45:39.459Z,30.4
2019-02-15T09:46:27.160Z,30.5
2019-02-15T09:47:17.910Z,30.4
2019-02-15T09:48:07.102Z,30.5
2019-02-15T09:48:57.264Z,30.6
2019-02-15T09:49:51.547Z,30.6
2019-02-15T09:50:37.847Z,30.6
2019-02-15T09:51:26.809Z,30.6
2019-02-15T09:52:17.660Z,30.6
2019-02-15T09:53:07.702Z,30.6
2019-02-15T09:53:58.080Z,30.6
2019-02-15T09:54:48.162Z,30.6
2019-02-15T09:55:37.731Z,30.6
2019-02-15T09:56:28.489Z,30.6
2019-02-15T09:57:18.279Z,30.6
2019-02-15T09:58:07.897Z,30.7
2019-02-15T09:58:57.356Z,30.7
2019-02-15T09:59:48.159Z,30.7
2019-02-15T10:00:38.227Z,30.7
2019-02-15T10:01:28.557Z,30.7
2019-02-15T10:02:16.992Z,30.7
2019-02-15T10:03:07.868Z,30.7
2019-02-15T10:04:00.796Z,30.8
2019-02-15T10:04:48.299Z,30.8
2019-02-15T10:07:11.756Z,30.8
2019-02-15T10:08:01.000Z,30.8
2019-02-15T10:08:51.388Z,30.8
2019-02-15T10:09:43.988Z,30.8
2019-02-15T10:10:32.066Z,30.8
2019-02-15T10:11:21.735Z,30.8
2019-02-15T10:12:11.861Z,30.7
2019-02-15T10:13:01.936Z,30.7
2019-02-15T10:13:52.147Z,30.7
2019-02-15T10:14:41.415Z,30.6
2019-02-15T10:15:32.586Z,30.6
2019-02-15T10:16:33.427Z,30.5
2019-02-15T10:17:11.418Z,30.5
2019-02-15T10:18:00.887Z,30.4
2019-02-15T10:18:52.532Z,30.4
2019-02-15T10:19:43.227Z,30.3
2019-02-15T10:20:31.107Z,30.3
2019-02-15T10:21:22.460Z,30.2
2019-02-15T10:22:14.931Z,30.1
2019-02-15T10:23:02.833Z,30.1
2019-02-15T10:23:52.639Z,30
2019-02-15T10:24:43.042Z,29.9
2019-02-15T10:25:33.017Z,29.9
2019-02-15T10:26:23.055Z,29.8
2019-02-15T10:27:12.227Z,29.7
2019-02-15T10:28:02.698Z,29.6
2019-02-15T10:28:52.542Z,29.5
2019-02-15T10:29:42.437Z,29.5
2019-02-15T10:30:33.119Z,29.4
2019-02-15T10:31:22.844Z,29.3
2019-02-15T10:32:14.022Z,29.3
2019-02-15T10:33:03.282Z,29.3
2019-02-15T10:33:53.326Z,29.2
2019-02-15T10:34:43.117Z,29.1
2019-02-15T10:35:33.660Z,29.1
2019-02-15T10:36:25.527Z,29
2019-02-15T10:37:12.700Z,29
2019-02-15T10:38:02.644Z,28.9
2019-02-15T10:38:53.751Z,28.9
2019-02-15T10:39:43.437Z,28.8
2019-02-15T10:40:33.762Z,28.8
2019-02-15T10:41:24.092Z,28.8
2019-02-15T10:42:28.243Z,28.8
2019-02-15T10:43:03.421Z,28.6
2019-02-15T10:43:54.006Z,28.6
2019-02-15T10:44:44.041Z,28.6
2019-02-15T10:45:33.381Z,28.6
2019-02-15T10:46:23.941Z,28.5
2019-02-15T10:47:31.571Z,28.5
2019-02-15T10:48:03.789Z,28.4
2019-02-15T10:48:54.054Z,28.4
2019-02-15T10:49:44.411Z,28.4
2019-02-15T10:50:33.923Z,28.3
2019-02-15T10:51:24.568Z,28.3
2019-02-15T10:52:14.328Z,28.3
2019-02-15T10:53:04.206Z,28.2
2019-02-15T10:53:54.784Z,28.1
2019-02-15T10:54:44.254Z,28.1
2019-02-15T10:55:34.005Z,28.1
2019-02-15T10:56:24.734Z,28.1
2019-02-15T10:57:15.266Z,28
2019-02-15T10:58:04.940Z,27.9
2019-02-15T10:58:54.775Z,27.9
2019-02-15T10:59:44.676Z,27.9
2019-02-15T11:00:34.114Z,27.9
2019-02-15T11:03:04.592Z,27.8
2019-02-15T11:03:54.190Z,27.8
2019-02-15T11:04:46.315Z,27.7
2019-02-15T11:05:35.495Z,27.7
2019-02-15T11:06:24.985Z,27.6
2019-02-15T11:07:14.778Z,27.6
2019-02-15T11:08:05.728Z,27.6
2019-02-15T11:08:55.477Z,27.6
2019-02-15T11:09:45.214Z,27.5
2019-02-15T11:10:38.057Z,27.5
2019-02-15T11:11:25.632Z,27.4
2019-02-15T11:12:15.944Z,27.4
2019-02-15T11:13:05.722Z,27.4
2019-02-15T11:13:55.002Z,27.4
2019-02-15T11:14:46.401Z,27.3
2019-02-15T11:15:36.442Z,27.3
2019-02-15T11:16:25.462Z,27.3
2019-02-15T11:17:15.861Z,27.3
2019-02-15T11:18:06.725Z,27.2
2019-02-15T11:18:56.699Z,27.2
2019-02-15T11:19:46.182Z,27.1
2019-02-15T11:20:35.960Z,27.1
2019-02-15T11:21:26.626Z,27.1
2019-02-15T11:22:16.364Z,27.1
2019-02-15T11:23:06.158Z,27